Time;durP1;ratioP1;P1;durP2;ratioP2;P2;SDS_P1;SDS_P2;PMS_P1;PMS_P2;Temp;Humidity;BMP_temperature;BMP_pressure;BME280_temperature;BME280_humidity;BME280_pressure;Samples;Min_cycle;Max_cycle;Signal;HPM_P1;HPM_P2
2021/12/18 00:00:41;;;;;;;25.40;15.80;;;3.90;99.90;;;;;;489034;243;27838;-75
2021/12/18 00:02:42;;;;;;;31.87;16.83;;;3.90;99.90;;;;;;489000;243;28015;-75
2021/12/18 00:04:43;;;;;;;20.95;14.60;;;3.90;99.90;;;;;;488987;243;27458;-75
2021/12/18 00:06:45;;;;;;;22.58;14.98;;;3.90;99.90;;;;;;489003;243;27390;-75
2021/12/18 00:08:46;;;;;;;22.62;14.48;;;3.90;99.90;;;;;;489035;243;27430;-75
2021/12/18 00:10:47;;;;;;;22.80;15.15;;;3.90;99.90;;;;;;489012;243;27484;-75
2021/12/18 00:12:49;;;;;;;21.65;14.20;;;3.90;99.90;;;;;;488986;243;27406;-75
2021/12/18 00:14:50;;;;;;;21.30;14.25;;;3.90;99.90;;;;;;489010;243;27465;-75
2021/12/18 00:16:51;;;;;;;23.52;14.77;;;3.90;99.90;;;;;;489018;243;27910;-75
2021/12/18 00:18:54;;;;;;;22.00;14.55;;;3.80;99.90;;;;;;489007;243;27889;-75
2021/12/18 00:20:54;;;;;;;19.23;14.60;;;3.80;99.90;;;;;;488931;243;27377;-75
2021/12/18 00:22:55;;;;;;;19.58;13.48;;;3.80;99.90;;;;;;488997;243;27418;-76
2021/12/18 00:24:56;;;;;;;20.98;13.77;;;3.80;99.90;;;;;;488989;243;27405;-75
2021/12/18 00:26:57;;;;;;;16.80;12.40;;;3.80;99.90;;;;;;489036;243;27395;-75
2021/12/18 00:28:58;;;;;;;19.00;13.50;;;3.70;99.90;;;;;;489010;243;27414;-76
2021/12/18 00:31:00;;;;;;;21.45;13.70;;;3.70;99.90;;;;;;488977;243;27822;-75
2021/12/18 00:33:01;;;;;;;18.10;12.63;;;3.70;99.90;;;;;;488945;243;27893;-75
2021/12/18 00:35:02;;;;;;;19.37;12.95;;;3.80;99.90;;;;;;488990;243;27493;-76
2021/12/18 00:37:04;;;;;;;18.40;12.35;;;3.70;99.90;;;;;;489010;243;27446;-75
2021/12/18 00:39:05;;;;;;;22.67;13.13;;;3.70;99.90;;;;;;489004;243;27518;-75
2021/12/18 00:43:33;;;;;;;18.08;11.80;;;3.70;99.90;;;;;;489017;243;27469;-75
2021/12/18 00:45:14;;;;;;;17.60;11.68;;;3.70;99.90;;;;;;487846;243;27849;-76
2021/12/18 00:47:16;;;;;;;16.75;11.55;;;3.70;99.90;;;;;;488982;243;27572;-75
2021/12/18 00:49:17;;;;;;;18.27;12.40;;;3.70;99.90;;;;;;488985;243;27442;-75
2021/12/18 00:51:18;;;;;;;20.55;12.55;;;3.60;99.90;;;;;;488798;243;27834;-75
2021/12/18 00:53:19;;;;;;;25.35;14.40;;;3.60;99.90;;;;;;488990;243;29018;-75
2021/12/18 00:55:21;;;;;;;22.50;15.23;;;3.60;99.90;;;;;;489013;243;27524;-75
2021/12/18 00:57:22;;;;;;;21.70;13.88;;;3.70;99.90;;;;;;489004;243;27375;-75
2021/12/18 00:59:23;;;;;;;19.83;13.20;;;3.70;99.90;;;;;;488995;243;27430;-75
2021/12/18 01:01:26;;;;;;;26.58;15.75;;;3.70;99.90;;;;;;489001;243;27383;-75
2021/12/18 01:03:26;;;;;;;25.10;14.50;;;3.60;99.90;;;;;;488946;243;27543;-75
2021/12/18 01:05:27;;;;;;;23.98;14.10;;;3.70;99.90;;;;;;489003;243;27925;-75
2021/12/18 01:07:28;;;;;;;19.98;14.23;;;3.60;99.90;;;;;;489002;243;27956;-75
2021/12/18 01:09:49;;;;;;;27.52;16.17;;;3.60;99.90;;;;;;488985;243;27425;-75
2021/12/18 01:11:42;;;;;;;22.90;15.00;;;3.60;99.90;;;;;;487810;243;27886;-75
2021/12/18 01:13:45;;;;;;;25.10;16.45;;;3.60;99.90;;;;;;488394;243;28944;-75
2021/12/18 01:15:42;;;;;;;28.62;15.48;;;3.60;99.90;;;;;;488272;243;27426;-75
2021/12/18 01:24:18;;;;;;;22.27;14.90;;;3.90;99.90;;;;;;488989;243;28007;-75
2021/12/18 01:26:19;;;;;;;24.98;14.23;;;3.90;99.90;;;;;;488990;243;27394;-76
2021/12/18 01:28:20;;;;;;;22.85;14.50;;;4.00;99.90;;;;;;489008;243;27497;-75
2021/12/18 01:30:21;;;;;;;22.00;13.85;;;4.00;99.90;;;;;;489010;243;27508;-75
2021/12/18 01:32:24;;;;;;;21.87;14.13;;;4.10;99.90;;;;;;489004;243;27390;-75
2021/12/18 01:34:24;;;;;;;21.65;13.38;;;4.10;99.90;;;;;;488967;243;27441;-75
2021/12/18 01:36:28;;;;;;;21.73;13.75;;;4.10;99.90;;;;;;488992;243;27964;-75
2021/12/18 01:38:28;;;;;;;22.40;13.35;;;4.10;99.90;;;;;;488813;243;27418;-75
2021/12/18 01:40:28;;;;;;;20.30;13.73;;;4.20;99.90;;;;;;488922;243;27436;-75
2021/12/18 01:51:20;;;;;;;20.73;13.82;;;4.30;99.90;;;;;;488983;243;27476;-75
2021/12/18 01:53:18;;;;;;;19.00;12.48;;;4.30;99.90;;;;;;488732;243;27418;-75
2021/12/18 01:55:19;;;;;;;19.58;13.50;;;4.30;99.90;;;;;;489016;243;27480;-75
2021/12/18 01:57:20;;;;;;;20.80;13.20;;;4.30;99.90;;;;;;489016;243;27421;-75
2021/12/18 01:59:21;;;;;;;19.25;13.20;;;4.30;99.90;;;;;;489026;243;27379;-76
2021/12/18 02:01:23;;;;;;;21.25;12.55;;;4.40;99.90;;;;;;488981;243;27512;-75
2021/12/18 02:03:24;;;;;;;18.35;11.73;;;4.40;99.90;;;;;;488996;243;28529;-75
2021/12/18 02:05:25;;;;;;;17.65;13.10;;;4.40;99.90;;;;;;489020;243;27936;-75
2021/12/18 02:07:26;;;;;;;16.75;11.52;;;4.40;99.90;;;;;;488981;243;27419;-75
2021/12/18 02:09:39;;;;;;;19.27;12.55;;;4.40;99.90;;;;;;489027;243;27383;-75
2021/12/18 02:11:33;;;;;;;17.80;11.75;;;4.40;99.90;;;;;;488210;243;27531;-75
2021/12/18 02:20:23;;;;;;;20.40;12.48;;;4.40;99.90;;;;;;489006;243;27453;-75
2021/12/18 02:22:11;;;;;;;15.15;10.73;;;4.40;99.90;;;;;;488085;243;27430;-75
2021/12/18 02:24:14;;;;;;;15.57;11.07;;;4.40;99.90;;;;;;489071;243;27987;-75
2021/12/18 02:26:14;;;;;;;17.65;11.60;;;4.40;99.90;;;;;;488961;243;27943;-75
2021/12/18 02:28:19;;;;;;;19.58;12.10;;;4.40;99.90;;;;;;489017;243;27487;-75
2021/12/18 02:30:17;;;;;;;18.80;11.70;;;4.40;99.90;;;;;;488739;243;27496;-74
2021/12/18 02:32:20;;;;;;;17.98;12.25;;;4.40;99.90;;;;;;488985;243;27517;-75
2021/12/18 02:34:26;;;;;;;18.33;11.95;;;4.40;99.90;;;;;;488905;243;27448;-75
2021/12/18 02:36:24;;;;;;;18.10;11.45;;;4.40;99.90;;;;;;488525;243;27382;-75
2021/12/18 02:38:24;;;;;;;18.83;12.45;;;4.40;99.90;;;;;;488775;243;28000;-76
2021/12/18 02:42:42;;;;;;;14.50;10.88;;;4.40;99.90;;;;;;488997;243;27402;-74
2021/12/18 02:44:43;;;;;;;16.02;11.52;;;4.40;99.90;;;;;;488995;243;27497;-75
2021/12/18 02:46:45;;;;;;;15.02;11.23;;;4.30;99.90;;;;;;488975;243;27398;-75
2021/12/18 02:48:46;;;;;;;16.92;11.70;;;4.30;99.90;;;;;;489003;243;27987;-75
2021/12/18 02:50:47;;;;;;;18.10;11.98;;;4.40;99.90;;;;;;488991;243;27536;-75
2021/12/18 02:52:48;;;;;;;15.43;10.80;;;4.30;99.90;;;;;;488960;243;27379;-75
2021/12/18 02:54:50;;;;;;;15.30;10.32;;;4.30;99.90;;;;;;488998;243;27425;-75
2021/12/18 02:56:51;;;;;;;15.52;11.25;;;4.40;99.90;;;;;;488943;243;27379;-75
2021/12/18 02:58:52;;;;;;;16.00;10.68;;;4.40;99.90;;;;;;488981;243;27499;-75
2021/12/18 03:00:53;;;;;;;17.85;11.20;;;4.40;99.90;;;;;;489003;243;27493;-76
2021/12/18 03:02:55;;;;;;;19.73;12.52;;;4.40;99.90;;;;;;488992;243;27882;-75
2021/12/18 03:05:00;;;;;;;14.30;10.82;;;4.30;99.90;;;;;;488990;243;27893;-76
2021/12/18 03:07:01;;;;;;;15.23;11.70;;;4.30;99.90;;;;;;488708;243;27430;-75
2021/12/18 03:24:40;;;;;;;17.40;12.88;;;4.20;99.90;;;;;;488988;243;27505;-76
2021/12/18 03:26:34;;;;;;;18.08;12.80;;;4.10;99.90;;;;;;488476;243;27484;-75
2021/12/18 03:28:35;;;;;;;17.25;12.25;;;4.20;99.90;;;;;;489003;243;27437;-74
2021/12/18 03:30:37;;;;;;;20.62;13.32;;;4.20;99.90;;;;;;489018;243;28252;-75
2021/12/18 03:32:38;;;;;;;17.37;11.38;;;4.20;99.90;;;;;;489012;243;27811;-74
2021/12/18 03:34:39;;;;;;;17.27;11.85;;;4.20;99.90;;;;;;489019;243;27386;-75
2021/12/18 03:36:40;;;;;;;17.33;11.88;;;4.20;99.90;;;;;;489033;243;27536;-75
2021/12/18 03:38:42;;;;;;;16.98;11.32;;;4.20;99.90;;;;;;489030;243;27398;-75
2021/12/18 03:40:43;;;;;;;20.52;12.30;;;4.20;99.90;;;;;;488897;243;27525;-75
2021/12/18 03:42:44;;;;;;;13.75;10.55;;;4.20;99.90;;;;;;489005;243;27468;-75
2021/12/18 03:44:45;;;;;;;15.23;11.63;;;4.30;99.90;;;;;;489020;243;27375;-75
2021/12/18 03:46:47;;;;;;;15.52;11.20;;;4.20;99.90;;;;;;488994;243;28024;-75
2021/12/18 03:48:48;;;;;;;15.82;10.60;;;4.20;99.90;;;;;;488990;243;27832;-75
2021/12/18 03:50:50;;;;;;;17.42;10.13;;;4.30;99.90;;;;;;488992;243;27414;-75
2021/12/18 03:52:50;;;;;;;14.93;9.68;;;4.30;99.90;;;;;;488983;243;27505;-75
2021/12/18 03:54:52;;;;;;;18.98;11.23;;;4.30;99.90;;;;;;489032;243;27395;-75
2021/12/18 03:56:53;;;;;;;14.75;10.48;;;4.20;99.90;;;;;;489079;243;27454;-76
2021/12/18 03:58:54;;;;;;;15.75;10.10;;;4.30;99.90;;;;;;489045;243;27386;-75
2021/12/18 04:00:55;;;;;;;16.80;12.02;;;4.30;99.90;;;;;;489055;243;27890;-75
2021/12/18 04:02:57;;;;;;;18.85;11.82;;;4.30;99.90;;;;;;489043;243;27991;-76
2021/12/18 04:04:58;;;;;;;16.17;11.05;;;4.30;99.90;;;;;;489041;243;27374;-75
2021/12/18 04:07:00;;;;;;;14.75;10.30;;;4.30;99.90;;;;;;489020;243;27422;-75
2021/12/18 04:09:00;;;;;;;15.75;9.65;;;4.30;99.90;;;;;;489018;243;27366;-75
2021/12/18 04:11:02;;;;;;;12.40;10.00;;;4.30;99.90;;;;;;489001;243;27430;-75
2021/12/18 04:13:03;;;;;;;18.62;11.10;;;4.40;99.90;;;;;;488999;243;27505;-75
2021/12/18 04:15:04;;;;;;;17.48;11.27;;;4.30;99.90;;;;;;489020;243;27386;-75
2021/12/18 04:17:06;;;;;;;14.00;10.38;;;4.40;99.90;;;;;;489041;243;27897;-75
2021/12/18 04:19:07;;;;;;;15.02;10.45;;;4.30;99.90;;;;;;488991;243;27903;-75
2021/12/18 04:21:08;;;;;;;17.08;10.40;;;4.30;99.90;;;;;;488997;243;27489;-75
2021/12/18 04:23:09;;;;;;;19.02;12.93;;;4.30;99.90;;;;;;488993;243;27425;-75
2021/12/18 04:25:11;;;;;;;17.60;12.25;;;4.30;99.90;;;;;;489004;243;27386;-75
2021/12/18 04:27:12;;;;;;;17.83;11.55;;;4.30;99.90;;;;;;489007;243;27490;-75
2021/12/18 04:29:13;;;;;;;15.70;11.43;;;4.30;99.90;;;;;;489009;243;27468;-75
2021/12/18 04:31:14;;;;;;;16.98;11.32;;;4.30;99.90;;;;;;489013;243;27922;-75
2021/12/18 04:33:16;;;;;;;17.48;11.45;;;4.30;99.90;;;;;;488985;243;28074;-75
2021/12/18 04:35:17;;;;;;;18.60;10.45;;;4.30;99.90;;;;;;488990;243;27500;-75
2021/12/18 04:37:20;;;;;;;16.85;10.50;;;4.30;99.90;;;;;;489017;243;27524;-75
2021/12/18 04:39:19;;;;;;;19.15;11.65;;;4.40;99.90;;;;;;488933;243;27371;-74
2021/12/18 04:41:23;;;;;;;16.52;11.45;;;4.30;99.90;;;;;;489015;243;27442;-76
2021/12/18 04:43:22;;;;;;;18.33;12.23;;;4.30;99.90;;;;;;488852;243;27422;-75
2021/12/18 04:45:23;;;;;;;16.55;11.73;;;4.30;99.90;;;;;;489015;243;27909;-76
2021/12/18 04:47:24;;;;;;;18.35;11.90;;;4.30;99.90;;;;;;488975;243;27996;-75
2021/12/18 04:49:26;;;;;;;21.12;12.45;;;4.30;99.90;;;;;;488999;243;27500;-74
2021/12/18 04:51:27;;;;;;;20.77;11.20;;;4.30;99.90;;;;;;488930;243;27499;-76
2021/12/18 04:53:28;;;;;;;18.17;11.73;;;4.20;99.90;;;;;;489010;243;27425;-75
2021/12/18 04:55:29;;;;;;;18.70;12.45;;;4.30;99.90;;;;;;488994;243;27382;-75
2021/12/18 04:57:31;;;;;;;18.23;11.90;;;4.20;99.90;;;;;;489009;243;27434;-75
2021/12/18 04:59:32;;;;;;;19.58;12.27;;;4.20;99.90;;;;;;489015;243;27391;-75
2021/12/18 05:01:36;;;;;;;17.98;12.85;;;4.20;99.90;;;;;;489022;243;27972;-75
2021/12/18 05:03:36;;;;;;;21.35;12.68;;;4.20;99.90;;;;;;488829;243;27477;-75
2021/12/18 05:05:36;;;;;;;20.77;13.55;;;4.20;99.90;;;;;;488948;243;27443;-75
2021/12/18 05:07:37;;;;;;;21.60;13.80;;;4.20;99.90;;;;;;489007;243;27433;-76
2021/12/18 05:09:38;;;;;;;26.27;14.75;;;4.20;99.90;;;;;;489017;243;27442;-75
2021/12/18 05:11:39;;;;;;;23.80;14.95;;;4.10;99.90;;;;;;488996;243;27422;-75
2021/12/18 05:13:41;;;;;;;22.35;14.05;;;4.10;99.90;;;;;;489008;243;27390;-75
2021/12/18 05:15:42;;;;;;;25.75;15.85;;;4.00;99.90;;;;;;489032;243;27830;-75
2021/12/18 05:17:43;;;;;;;26.98;15.30;;;4.00;99.90;;;;;;489035;243;28021;-75
2021/12/18 05:19:44;;;;;;;26.92;14.23;;;4.00;99.90;;;;;;488990;243;27374;-75
2021/12/18 05:21:46;;;;;;;26.85;15.25;;;4.10;99.90;;;;;;488925;243;27425;-75
2021/12/18 05:23:48;;;;;;;25.90;15.55;;;4.10;99.90;;;;;;488958;243;27406;-75
2021/12/18 05:25:48;;;;;;;25.70;14.82;;;4.10;99.90;;;;;;488942;243;27386;-75
2021/12/18 05:27:50;;;;;;;25.00;15.10;;;4.10;99.90;;;;;;489016;243;27512;-75
2021/12/18 05:29:51;;;;;;;28.87;16.85;;;4.10;99.90;;;;;;488970;243;27834;-75
2021/12/18 05:31:52;;;;;;;28.33;16.35;;;4.00;99.90;;;;;;488948;243;27915;-75
2021/12/18 05:33:58;;;;;;;24.83;14.85;;;4.00;99.90;;;;;;488991;243;27442;-75
2021/12/18 05:35:55;;;;;;;25.60;15.07;;;4.00;99.90;;;;;;488689;243;27465;-75
2021/12/18 05:38:04;;;;;;;24.37;14.48;;;4.00;99.90;;;;;;488968;243;27421;-74
2021/12/18 05:39:57;;;;;;;26.52;15.80;;;4.10;99.90;;;;;;488402;243;27422;-75
2021/12/18 05:41:58;;;;;;;28.42;15.40;;;4.10;99.90;;;;;;488985;243;27446;-75
2021/12/18 05:44:00;;;;;;;26.90;14.98;;;4.10;99.90;;;;;;489016;243;27492;-74
2021/12/18 05:46:01;;;;;;;25.77;15.10;;;4.10;99.90;;;;;;489014;243;27854;-75
2021/12/18 05:48:02;;;;;;;24.85;14.65;;;4.10;99.90;;;;;;488958;243;27919;-75
2021/12/18 05:50:03;;;;;;;31.12;16.75;;;4.10;99.90;;;;;;489006;243;27384;-75
2021/12/18 05:52:05;;;;;;;26.67;15.13;;;4.10;99.90;;;;;;488989;243;27514;-75
2021/12/18 05:54:06;;;;;;;26.42;14.65;;;4.10;99.90;;;;;;489022;243;27421;-75
2021/12/18 05:56:07;;;;;;;29.40;16.62;;;4.10;99.90;;;;;;489028;243;27762;-75
2021/12/18 05:58:08;;;;;;;25.92;15.65;;;4.00;99.90;;;;;;488994;243;27461;-75
2021/12/18 06:00:10;;;;;;;28.83;15.63;;;4.10;99.90;;;;;;488991;243;27839;-76
2021/12/18 06:02:11;;;;;;;29.23;15.55;;;4.10;99.90;;;;;;488976;243;28014;-75
2021/12/18 06:04:12;;;;;;;27.87;16.90;;;4.00;99.90;;;;;;489001;243;27442;-74
2021/12/18 06:06:13;;;;;;;24.90;15.57;;;4.10;99.90;;;;;;489004;243;27481;-75
2021/12/18 06:08:15;;;;;;;26.00;15.02;;;4.10;99.90;;;;;;488991;243;27449;-75
2021/12/18 06:10:16;;;;;;;23.55;14.65;;;4.10;99.90;;;;;;488975;243;27387;-75
2021/12/18 06:12:17;;;;;;;26.95;16.00;;;4.20;99.90;;;;;;488981;243;27422;-75
2021/12/18 06:14:18;;;;;;;25.02;15.52;;;4.10;99.90;;;;;;489021;243;27504;-75
2021/12/18 06:16:20;;;;;;;25.75;13.73;;;4.20;99.90;;;;;;489009;243;27842;-75
2021/12/18 06:18:21;;;;;;;25.12;15.68;;;4.10;99.90;;;;;;488978;243;27994;-75
2021/12/18 06:20:22;;;;;;;27.50;15.25;;;4.10;99.90;;;;;;489002;243;27458;-75
2021/12/18 06:22:23;;;;;;;33.97;17.37;;;4.10;99.90;;;;;;488979;243;27419;-75
2021/12/18 06:24:26;;;;;;;30.33;16.40;;;4.00;99.90;;;;;;488996;243;27424;-76
2021/12/18 06:26:27;;;;;;;32.72;17.05;;;3.90;99.90;;;;;;488935;243;27453;-75
2021/12/18 06:28:27;;;;;;;31.15;16.23;;;3.90;99.90;;;;;;488957;243;27434;-75
2021/12/18 06:30:28;;;;;;;34.00;17.58;;;3.90;99.90;;;;;;488974;243;27949;-75
2021/12/18 06:32:30;;;;;;;29.55;16.00;;;3.80;99.90;;;;;;488976;243;27886;-75
2021/12/18 06:34:31;;;;;;;29.83;17.12;;;3.80;99.90;;;;;;489004;243;27545;-75
2021/12/18 06:36:32;;;;;;;33.55;16.90;;;3.70;99.90;;;;;;489012;243;27469;-75
2021/12/18 06:38:34;;;;;;;31.87;16.75;;;3.70;99.90;;;;;;488983;243;27429;-75
2021/12/18 06:40:35;;;;;;;28.87;15.90;;;3.70;99.90;;;;;;488980;243;27371;-75
2021/12/18 06:42:36;;;;;;;29.77;16.33;;;3.80;99.90;;;;;;488986;243;27424;-75
2021/12/18 06:44:37;;;;;;;29.08;15.77;;;3.60;99.90;;;;;;488994;243;27855;-75
2021/12/18 06:46:39;;;;;;;33.40;17.27;;;3.60;99.90;;;;;;489003;243;27831;-74
2021/12/18 06:48:40;;;;;;;26.98;14.52;;;3.50;99.90;;;;;;488979;243;29018;-76
2021/12/18 06:50:41;;;;;;;25.30;14.10;;;3.60;99.90;;;;;;489007;243;27650;-75
2021/12/18 06:52:42;;;;;;;29.48;14.50;;;3.70;99.90;;;;;;489005;243;27461;-75
2021/12/18 06:54:44;;;;;;;25.45;15.55;;;3.60;99.90;;;;;;489029;243;27405;-75
2021/12/18 06:56:45;;;;;;;27.75;15.40;;;3.50;99.90;;;;;;488991;243;27470;-74
2021/12/18 06:58:46;;;;;;;25.60;14.55;;;3.50;99.90;;;;;;489024;243;27413;-74
2021/12/18 07:00:47;;;;;;;24.45;13.52;;;3.40;99.90;;;;;;489022;243;27810;-75
2021/12/18 07:02:49;;;;;;;26.00;13.62;;;3.40;99.90;;;;;;488976;243;27899;-75
2021/12/18 07:04:51;;;;;;;26.75;14.85;;;3.40;99.90;;;;;;488993;243;29085;-74
2021/12/18 07:06:52;;;;;;;24.70;13.05;;;3.30;99.90;;;;;;488972;243;27442;-74
2021/12/18 07:08:52;;;;;;;25.92;14.52;;;3.30;99.90;;;;;;488954;243;27504;-75
2021/12/18 07:10:54;;;;;;;28.45;14.80;;;3.30;99.90;;;;;;489029;243;27403;-75
2021/12/18 07:12:55;;;;;;;27.13;13.77;;;3.20;99.90;;;;;;489049;243;27468;-75
2021/12/18 07:14:56;;;;;;;27.60;13.93;;;3.20;99.90;;;;;;489022;243;27529;-75
2021/12/18 07:16:57;;;;;;;26.25;13.95;;;3.30;99.90;;;;;;489017;243;27519;-74
2021/12/18 07:18:59;;;;;;;25.50;13.80;;;3.30;99.90;;;;;;489014;243;27983;-75
2021/12/18 07:21:00;;;;;;;24.95;12.98;;;3.30;99.90;;;;;;489026;243;27848;-75
2021/12/18 07:23:01;;;;;;;25.73;14.32;;;3.40;99.90;;;;;;488990;243;27440;-75
2021/12/18 07:25:02;;;;;;;26.20;14.23;;;3.30;99.90;;;;;;489026;243;27513;-75
2021/12/18 07:27:04;;;;;;;25.80;13.48;;;3.10;99.90;;;;;;488991;243;27401;-75
2021/12/18 07:29:05;;;;;;;23.27;14.02;;;3.20;99.90;;;;;;489014;243;27414;-75
2021/12/18 07:31:06;;;;;;;24.00;13.70;;;3.20;99.90;;;;;;489015;243;27475;-75
2021/12/18 07:33:10;;;;;;;23.85;13.98;;;3.10;99.90;;;;;;489036;243;28250;-74
2021/12/18 07:35:09;;;;;;;25.50;14.05;;;3.20;99.90;;;;;;488849;243;27905;-75
2021/12/18 07:37:10;;;;;;;23.48;13.62;;;3.20;99.90;;;;;;489018;243;27414;-75
2021/12/18 07:39:11;;;;;;;20.77;12.70;;;3.30;99.90;;;;;;488994;243;27490;-75
2021/12/18 07:41:12;;;;;;;23.77;12.75;;;3.30;99.90;;;;;;489018;243;27517;-75
2021/12/18 07:43:14;;;;;;;24.83;13.25;;;3.30;99.90;;;;;;489012;243;27461;-75
2021/12/18 07:45:15;;;;;;;26.08;13.02;;;3.40;99.90;;;;;;489032;243;27501;-76
2021/12/18 07:47:16;;;;;;;24.50;13.45;;;3.40;99.90;;;;;;489023;243;27404;-75
2021/12/18 07:49:17;;;;;;;26.20;14.20;;;3.30;99.90;;;;;;488969;243;28279;-75
2021/12/18 07:51:19;;;;;;;24.05;13.73;;;3.30;99.90;;;;;;489015;243;28979;-75
2021/12/18 07:53:21;;;;;;;23.90;13.70;;;3.30;99.90;;;;;;489016;243;27464;-75
2021/12/18 07:55:21;;;;;;;22.42;14.13;;;3.30;99.90;;;;;;488977;243;27401;-75
2021/12/18 07:57:23;;;;;;;21.40;13.02;;;3.50;99.90;;;;;;489004;243;27389;-75
2021/12/18 07:59:24;;;;;;;22.08;12.80;;;3.50;99.90;;;;;;488996;243;27438;-75
2021/12/18 08:01:25;;;;;;;22.70;13.35;;;3.40;99.90;;;;;;489026;243;27539;-75
2021/12/18 08:03:26;;;;;;;18.95;11.77;;;3.30;99.90;;;;;;489007;243;27390;-75
2021/12/18 08:05:28;;;;;;;27.52;13.80;;;3.30;99.90;;;;;;489016;243;28219;-75
2021/12/18 08:07:29;;;;;;;22.42;13.73;;;3.30;99.90;;;;;;488990;243;27914;-75
2021/12/18 08:09:30;;;;;;;23.95;13.90;;;3.30;99.90;;;;;;488988;243;27418;-75
2021/12/18 08:11:31;;;;;;;25.55;13.80;;;3.40;99.90;;;;;;489030;243;27421;-75
2021/12/18 08:13:33;;;;;;;18.00;11.25;;;3.40;99.90;;;;;;489006;243;27374;-76
2021/12/18 08:15:34;;;;;;;21.00;12.88;;;3.50;99.90;;;;;;489068;243;27430;-75
2021/12/18 08:17:35;;;;;;;22.75;13.02;;;3.60;99.90;;;;;;489023;243;27390;-75
2021/12/18 08:19:36;;;;;;;19.55;11.98;;;3.50;99.90;;;;;;489011;243;27493;-76
2021/12/18 08:21:38;;;;;;;21.80;13.10;;;3.50;99.90;;;;;;489017;243;28029;-75
2021/12/18 08:23:39;;;;;;;22.15;13.27;;;3.40;99.90;;;;;;489050;243;27999;-75
2021/12/18 08:25:40;;;;;;;19.33;11.57;;;3.30;99.90;;;;;;489022;243;27505;-75
2021/12/18 08:27:41;;;;;;;19.55;11.63;;;3.30;99.90;;;;;;488997;243;27498;-75
2021/12/18 08:29:43;;;;;;;19.98;12.85;;;3.40;99.90;;;;;;488979;243;27426;-75
2021/12/18 08:31:45;;;;;;;18.48;11.73;;;3.30;99.90;;;;;;489028;243;27766;-75
2021/12/18 08:33:45;;;;;;;23.20;12.95;;;3.30;99.90;;;;;;489010;243;27480;-75
2021/12/18 08:35:46;;;;;;;20.90;11.82;;;3.30;99.90;;;;;;488989;243;27972;-75
2021/12/18 08:37:48;;;;;;;24.20;12.65;;;3.20;99.90;;;;;;489004;243;28170;-74
2021/12/18 08:39:49;;;;;;;20.65;11.85;;;3.20;99.90;;;;;;488987;243;27422;-75
2021/12/18 08:41:50;;;;;;;20.65;13.15;;;3.10;99.90;;;;;;488996;243;27508;-75
2021/12/18 08:43:52;;;;;;;19.65;12.57;;;3.20;99.90;;;;;;489004;243;27382;-75
2021/12/18 08:45:53;;;;;;;19.17;11.43;;;3.20;99.90;;;;;;488986;243;27453;-75
2021/12/18 08:47:55;;;;;;;20.77;12.85;;;3.20;99.90;;;;;;488939;243;27855;-75
2021/12/18 08:49:55;;;;;;;20.20;11.80;;;3.10;99.90;;;;;;488966;243;27438;-75
2021/12/18 08:51:56;;;;;;;20.92;12.75;;;3.10;99.90;;;;;;488996;243;28715;-75
2021/12/18 08:53:58;;;;;;;21.40;12.90;;;3.10;99.90;;;;;;489019;243;28367;-75
2021/12/18 08:55:59;;;;;;;22.52;13.82;;;3.20;99.90;;;;;;489027;243;27505;-75
2021/12/18 08:58:00;;;;;;;21.37;12.43;;;3.20;99.90;;;;;;489006;243;27397;-75
2021/12/18 09:00:01;;;;;;;23.23;12.68;;;3.30;99.90;;;;;;488999;243;27450;-75
2021/12/18 09:02:03;;;;;;;20.65;12.43;;;3.30;99.90;;;;;;488989;243;27540;-75
2021/12/18 09:04:04;;;;;;;21.15;12.40;;;3.40;99.90;;;;;;489021;243;27386;-75
2021/12/18 09:06:05;;;;;;;22.13;13.38;;;3.40;99.90;;;;;;489019;243;28078;-75
2021/12/18 09:08:07;;;;;;;21.77;12.57;;;3.30;99.90;;;;;;488992;243;27880;-75
2021/12/18 09:10:08;;;;;;;22.67;12.88;;;3.20;99.90;;;;;;488985;243;28287;-75
2021/12/18 09:12:09;;;;;;;20.95;12.20;;;3.00;99.90;;;;;;489019;243;27414;-75
2021/12/18 09:14:10;;;;;;;22.98;13.55;;;3.00;99.90;;;;;;489007;243;27386;-75
2021/12/18 09:16:12;;;;;;;22.33;12.98;;;3.00;99.90;;;;;;489003;243;27513;-75
2021/12/18 09:18:13;;;;;;;20.02;12.48;;;3.00;99.90;;;;;;489066;243;27516;-75
2021/12/18 09:20:14;;;;;;;22.40;13.88;;;3.10;99.90;;;;;;488998;243;27505;-75
2021/12/18 09:22:15;;;;;;;19.15;12.23;;;3.00;99.90;;;;;;489007;243;28766;-74
2021/12/18 09:24:17;;;;;;;21.87;14.00;;;3.10;99.90;;;;;;489002;243;27850;-75
2021/12/18 09:26:18;;;;;;;22.05;12.85;;;3.00;99.90;;;;;;489016;243;27834;-75
2021/12/18 09:28:19;;;;;;;24.20;12.88;;;3.10;99.90;;;;;;488998;243;27375;-75
2021/12/18 09:30:20;;;;;;;20.08;13.10;;;3.10;99.90;;;;;;489013;243;27517;-75
2021/12/18 09:32:22;;;;;;;17.37;11.02;;;3.10;99.90;;;;;;489016;243;27433;-75
2021/12/18 09:34:23;;;;;;;19.48;12.10;;;3.30;99.90;;;;;;489032;243;27395;-75
2021/12/18 09:36:24;;;;;;;20.75;13.18;;;3.20;99.90;;;;;;488554;243;27425;-75
2021/12/18 09:38:25;;;;;;;21.42;13.13;;;3.20;99.90;;;;;;489045;243;27925;-75
2021/12/18 09:40:27;;;;;;;18.70;12.37;;;3.30;99.90;;;;;;489023;243;27900;-75
2021/12/18 09:42:28;;;;;;;20.65;13.20;;;3.30;99.90;;;;;;488997;243;27404;-75
2021/12/18 09:44:29;;;;;;;24.83;13.85;;;3.20;99.90;;;;;;488994;243;27398;-75
2021/12/18 09:46:30;;;;;;;21.05;13.10;;;3.20;99.90;;;;;;489019;243;27505;-75
2021/12/18 09:48:32;;;;;;;21.00;12.45;;;3.30;99.90;;;;;;488996;243;27386;-75
2021/12/18 09:50:35;;;;;;;18.62;12.00;;;3.30;99.90;;;;;;488975;243;27506;-75
2021/12/18 09:52:35;;;;;;;22.15;13.18;;;3.30;99.90;;;;;;488883;243;27363;-75
2021/12/18 09:54:35;;;;;;;20.50;12.20;;;3.40;99.90;;;;;;488968;243;27941;-75
2021/12/18 09:56:38;;;;;;;19.42;12.25;;;3.40;99.90;;;;;;489022;243;27990;-75
2021/12/18 09:58:38;;;;;;;20.58;11.65;;;3.50;99.90;;;;;;488920;243;27445;-75
2021/12/18 10:00:39;;;;;;;20.17;11.93;;;3.50;99.90;;;;;;488989;243;27552;-75
2021/12/18 10:02:40;;;;;;;22.25;12.15;;;3.40;99.90;;;;;;488972;243;27375;-75
2021/12/18 10:04:42;;;;;;;20.70;13.10;;;3.40;99.90;;;;;;488995;243;27427;-75
2021/12/18 10:06:44;;;;;;;21.00;12.50;;;3.50;99.90;;;;;;489005;243;27430;-75
2021/12/18 10:08:44;;;;;;;19.90;11.63;;;3.50;99.90;;;;;;488999;243;27871;-75
2021/12/18 10:10:45;;;;;;;24.27;13.45;;;3.50;99.90;;;;;;488980;242;27988;-75
2021/12/18 10:12:47;;;;;;;23.98;12.93;;;3.40;99.90;;;;;;489002;243;27370;-75
2021/12/18 10:14:48;;;;;;;24.25;13.75;;;3.40;99.90;;;;;;488999;243;27761;-74
2021/12/18 10:16:49;;;;;;;25.27;13.70;;;3.40;99.90;;;;;;489016;243;27442;-75
2021/12/18 10:18:51;;;;;;;24.42;13.15;;;3.40;99.90;;;;;;488995;243;27754;-75
2021/12/18 10:20:52;;;;;;;24.35;13.35;;;3.40;99.90;;;;;;489008;243;27541;-75
2021/12/18 10:22:53;;;;;;;23.83;13.23;;;3.40;99.90;;;;;;488987;243;27464;-75
2021/12/18 10:24:54;;;;;;;23.30;12.10;;;3.50;99.90;;;;;;488980;243;27891;-74
2021/12/18 10:26:56;;;;;;;27.35;13.73;;;3.50;99.90;;;;;;489004;243;27908;-75
2021/12/18 10:28:57;;;;;;;24.87;13.30;;;3.50;99.90;;;;;;488997;243;27387;-75
2021/12/18 10:30:58;;;;;;;26.80;14.15;;;3.60;99.90;;;;;;488993;243;27444;-75
2021/12/18 10:33:00;;;;;;;26.95;14.38;;;3.50;99.90;;;;;;488990;243;27413;-76
2021/12/18 10:35:01;;;;;;;28.75;15.13;;;3.50;99.90;;;;;;488982;243;27418;-75
2021/12/18 10:37:02;;;;;;;25.92;13.73;;;3.60;99.90;;;;;;489001;243;27454;-76
2021/12/18 10:39:03;;;;;;;31.62;15.65;;;3.50;99.90;;;;;;488997;243;27858;-75
2021/12/18 10:41:04;;;;;;;31.02;14.68;;;3.50;99.90;;;;;;488993;243;27910;-75
2021/12/18 10:43:06;;;;;;;26.45;14.65;;;3.60;99.90;;;;;;489036;243;27363;-75
2021/12/18 10:45:07;;;;;;;31.42;16.00;;;3.50;99.90;;;;;;489011;243;27414;-75
2021/12/18 10:47:08;;;;;;;32.70;15.63;;;3.50;99.90;;;;;;489029;243;27496;-74
2021/12/18 10:49:09;;;;;;;31.17;16.10;;;3.50;99.90;;;;;;489021;243;27390;-75
2021/12/18 10:51:11;;;;;;;29.87;15.50;;;3.50;99.90;;;;;;488992;243;27414;-75
2021/12/18 10:53:12;;;;;;;32.78;16.70;;;3.50;99.90;;;;;;489003;243;27394;-75
2021/12/18 10:55:13;;;;;;;34.28;15.35;;;3.60;99.90;;;;;;488964;242;27878;-75
2021/12/18 10:57:14;;;;;;;40.95;17.98;;;3.50;99.90;;;;;;488943;243;28705;-75
2021/12/18 10:59:16;;;;;;;36.70;18.17;;;3.50;99.90;;;;;;489004;243;27383;-75
2021/12/18 11:01:17;;;;;;;42.85;18.67;;;3.40;99.90;;;;;;488990;243;27512;-75
2021/12/18 11:03:18;;;;;;;43.35;19.75;;;3.40;99.90;;;;;;488986;243;27602;-74